Time;durP1;ratioP1;P1;durP2;ratioP2;P2;SDS_P1;SDS_P2;PMS_P1;PMS_P2;Temp;Humidity;BMP_temperature;BMP_pressure;BME280_temperature;BME280_humidity;BME280_pressure;Samples;Min_cycle;Max_cycle;Signal;HPM_P1;HPM_P2
2022/04/16 00:01:09;;;;;;;7.65;3.90;;;8.20;99.90;;;;;;5109668;27;20032;-78
2022/04/16 00:03:34;;;;;;;9.80;4.28;;;8.20;99.90;;;;;;5075204;28;20405;-78
2022/04/16 00:06:01;;;;;;;7.88;3.50;;;8.20;99.90;;;;;;5072399;28;20093;-78
2022/04/16 00:08:28;;;;;;;8.38;4.07;;;8.20;99.90;;;;;;5057307;28;20032;-78
2022/04/16 00:10:54;;;;;;;8.23;3.95;;;8.20;99.90;;;;;;5072991;28;20033;-78
2022/04/16 00:13:21;;;;;;;6.78;3.75;;;8.20;99.90;;;;;;5093909;28;20044;-78
2022/04/16 00:15:49;;;;;;;7.93;3.40;;;8.20;99.90;;;;;;5081093;28;20040;-78
2022/04/16 00:18:15;;;;;;;7.22;3.90;;;8.20;99.90;;;;;;5096490;28;20123;-78
2022/04/16 00:20:41;;;;;;;8.75;4.05;;;8.10;99.90;;;;;;5057356;28;20081;-78
2022/04/16 00:23:07;;;;;;;7.35;4.13;;;8.10;99.90;;;;;;5075045;28;20033;-78
2022/04/16 00:25:34;;;;;;;8.40;4.28;;;8.10;99.90;;;;;;5112319;27;20514;-78
2022/04/16 00:28:01;;;;;;;6.93;3.72;;;8.10;99.90;;;;;;5068071;28;20040;-78
2022/04/16 00:30:26;;;;;;;6.65;3.95;;;8.00;99.90;;;;;;5078914;28;20039;-78
2022/04/16 00:32:55;;;;;;;8.35;4.22;;;8.00;99.90;;;;;;5064717;28;20099;-78
2022/04/16 00:35:23;;;;;;;6.40;3.88;;;8.00;99.90;;;;;;5056486;28;20037;-78
2022/04/16 00:37:49;;;;;;;6.82;3.97;;;7.90;99.90;;;;;;5079384;28;20134;-78
2022/04/16 00:40:14;;;;;;;6.65;3.22;;;7.90;99.90;;;;;;5059817;28;20032;-78
2022/04/16 00:42:44;;;;;;;8.68;4.63;;;7.90;99.90;;;;;;5062415;28;20036;-78
2022/04/16 00:45:10;;;;;;;11.30;4.10;;;7.80;99.90;;;;;;5055445;28;20574;-78
2022/04/16 00:47:36;;;;;;;8.60;4.45;;;7.80;99.90;;;;;;5078477;28;20040;-78
2022/04/16 00:50:08;;;;;;;7.68;4.28;;;7.80;99.90;;;;;;5074468;28;20734;-78
2022/04/16 00:52:35;;;;;;;5.65;4.18;;;7.80;99.90;;;;;;5078340;28;20335;-78
2022/04/16 00:55:01;;;;;;;8.40;3.78;;;7.80;99.90;;;;;;5076782;28;20048;-78
2022/04/16 00:57:26;;;;;;;8.00;4.25;;;7.80;99.90;;;;;;5076055;28;20051;-78
2022/04/16 00:59:53;;;;;;;8.20;4.30;;;7.80;99.90;;;;;;5076286;28;20035;-78
2022/04/16 01:02:20;;;;;;;6.57;3.17;;;7.80;99.90;;;;;;5080363;28;20032;-78
2022/04/16 01:04:46;;;;;;;6.03;4.10;;;7.80;99.90;;;;;;5116088;27;20975;-78
2022/04/16 01:07:12;;;;;;;10.00;4.72;;;7.80;99.90;;;;;;5074121;28;20039;-78
2022/04/16 01:09:37;;;;;;;7.95;4.25;;;7.80;99.90;;;;;;5063323;28;20123;-78
2022/04/16 01:12:03;;;;;;;6.82;3.88;;;7.70;99.90;;;;;;5075211;28;20068;-78
2022/04/16 01:14:29;;;;;;;8.60;4.93;;;7.70;99.90;;;;;;5063856;28;20059;-78
2022/04/16 01:16:56;;;;;;;8.85;5.15;;;7.70;99.90;;;;;;5075533;28;20555;-78
2022/04/16 01:19:23;;;;;;;8.63;4.13;;;7.70;99.90;;;;;;5112955;27;20036;-78
2022/04/16 01:21:50;;;;;;;10.93;4.95;;;7.70;99.90;;;;;;5092604;28;20086;-78
2022/04/16 01:24:16;;;;;;;8.27;4.10;;;7.70;99.90;;;;;;5082328;28;20032;-78
2022/04/16 01:26:41;;;;;;;10.00;4.80;;;7.60;99.90;;;;;;5074263;28;20473;-78
2022/04/16 01:29:08;;;;;;;8.43;5.28;;;7.60;99.90;;;;;;5112024;27;20032;-77
2022/04/16 01:31:34;;;;;;;8.00;4.10;;;7.60;99.90;;;;;;5075241;28;20036;-78
2022/04/16 01:34:00;;;;;;;12.13;5.82;;;7.60;99.90;;;;;;5064720;28;20043;-78
2022/04/16 01:36:29;;;;;;;7.45;4.10;;;7.60;99.90;;;;;;5077630;28;20576;-78
2022/04/16 01:38:56;;;;;;;7.53;4.47;;;7.50;99.90;;;;;;5113702;27;20512;-78
2022/04/16 01:41:22;;;;;;;8.63;3.92;;;7.50;99.90;;;;;;5072038;28;20059;-78
2022/04/16 01:43:47;;;;;;;11.25;4.88;;;7.50;99.90;;;;;;5074387;28;20071;-78
2022/04/16 01:46:13;;;;;;;10.23;5.13;;;7.50;99.90;;;;;;5079232;28;20496;-78
2022/04/16 01:48:38;;;;;;;10.48;4.93;;;7.50;99.90;;;;;;5112422;27;20068;-78
2022/04/16 01:51:05;;;;;;;10.15;4.90;;;7.50;99.90;;;;;;5055421;28;20036;-78
2022/04/16 01:53:31;;;;;;;10.20;4.93;;;7.50;99.90;;;;;;5077793;28;20039;-78
2022/04/16 01:55:57;;;;;;;8.95;5.28;;;7.50;99.90;;;;;;5059349;28;20086;-78
2022/04/16 01:58:22;;;;;;;8.02;4.03;;;7.40;99.90;;;;;;5112136;27;20072;-78
2022/04/16 02:00:49;;;;;;;10.65;5.43;;;7.40;99.90;;;;;;5073582;28;20035;-78
2022/04/16 02:03:14;;;;;;;11.15;4.68;;;7.40;99.90;;;;;;5072301;28;20036;-78
2022/04/16 02:05:40;;;;;;;8.32;4.10;;;7.40;99.90;;;;;;5064229;28;20051;-78
2022/04/16 02:08:07;;;;;;;7.43;4.50;;;7.40;99.90;;;;;;5075010;28;20059;-78
2022/04/16 02:10:34;;;;;;;8.68;4.68;;;7.40;99.90;;;;;;5061732;28;20101;-78
2022/04/16 02:13:00;;;;;;;7.68;4.32;;;7.30;99.90;;;;;;5096677;28;20060;-78
2022/04/16 02:15:27;;;;;;;10.88;4.85;;;7.30;99.90;;;;;;5076048;28;20127;-78
2022/04/16 02:17:54;;;;;;;10.18;5.32;;;7.30;99.90;;;;;;5073485;28;20050;-78
2022/04/16 02:20:23;;;;;;;7.78;4.63;;;7.30;99.90;;;;;;5097630;28;20040;-78
2022/04/16 02:22:49;;;;;;;8.25;4.25;;;7.30;99.90;;;;;;5063821;28;20042;-78
2022/04/16 02:25:20;;;;;;;9.88;5.25;;;7.30;99.90;;;;;;5079081;28;20094;-78
2022/04/16 02:27:46;;;;;;;7.47;4.28;;;7.20;99.90;;;;;;5076239;28;20051;-78
2022/04/16 02:30:13;;;;;;;7.57;4.32;;;7.20;99.90;;;;;;5092013;28;20036;-77
2022/04/16 02:32:52;;;;;;;9.40;4.68;;;7.10;99.90;;;;;;5065726;28;20478;-78
2022/04/16 02:35:18;;;;;;;9.50;4.38;;;7.10;99.90;;;;;;5074608;28;20991;-77
2022/04/16 02:37:44;;;;;;;8.32;3.88;;;7.00;99.90;;;;;;5076078;28;21386;-78
2022/04/16 02:40:11;;;;;;;7.78;3.78;;;7.00;99.90;;;;;;5094256;28;20047;-78
2022/04/16 02:42:37;;;;;;;10.20;5.25;;;6.90;99.90;;;;;;5080702;28;20060;-78
2022/04/16 02:47:49;;;;;;;6.30;3.92;;;6.80;99.90;;;;;;5109775;27;20253;-78
2022/04/16 02:50:15;;;;;;;9.05;4.03;;;6.80;99.90;;;;;;5071094;28;20688;-78
2022/04/16 02:52:41;;;;;;;7.97;4.03;;;6.80;99.90;;;;;;5079576;28;20044;-78
2022/04/16 02:55:07;;;;;;;7.93;4.03;;;6.80;99.90;;;;;;5071168;28;20587;-77
2022/04/16 02:57:33;;;;;;;8.73;4.20;;;6.70;99.90;;;;;;5077636;28;20028;-77
2022/04/16 02:59:59;;;;;;;8.50;4.03;;;6.70;99.90;;;;;;5074824;28;20043;-77
2022/04/16 03:02:25;;;;;;;10.20;4.10;;;6.70;99.90;;;;;;5112224;28;20042;-78
2022/04/16 03:04:51;;;;;;;8.52;3.28;;;6.80;99.90;;;;;;5089836;28;20672;-78
2022/04/16 03:07:17;;;;;;;9.45;4.45;;;6.80;99.90;;;;;;5060180;28;20036;-77
2022/04/16 03:09:43;;;;;;;8.18;3.95;;;6.80;99.90;;;;;;5087388;28;20239;-78
2022/04/16 03:12:09;;;;;;;9.77;4.30;;;6.80;99.90;;;;;;5097223;28;20602;-77
2022/04/16 03:17:34;;;;;;;10.93;4.90;;;6.90;99.90;;;;;;5114143;28;20056;-78
2022/04/16 03:20:06;;;;;;;11.10;4.82;;;7.00;99.90;;;;;;5064916;28;20032;-77
2022/04/16 03:22:33;;;;;;;7.68;4.32;;;7.10;99.90;;;;;;5071328;28;21999;-78
2022/04/16 03:25:07;;;;;;;8.93;4.50;;;7.10;99.90;;;;;;5060386;28;20108;-77
2022/04/16 03:27:33;;;;;;;12.52;6.18;;;7.20;99.90;;;;;;5074919;28;20040;-77
2022/04/16 03:29:58;;;;;;;11.27;6.05;;;7.20;99.90;;;;;;5113441;28;20044;-77
2022/04/16 03:32:24;;;;;;;12.73;5.18;;;7.30;99.90;;;;;;5074756;28;20040;-78
2022/04/16 03:34:50;;;;;;;11.55;4.72;;;7.30;99.90;;;;;;5073300;28;20052;-77
2022/04/16 03:37:16;;;;;;;11.93;6.55;;;7.40;99.90;;;;;;5077637;28;20043;-78
2022/04/16 03:39:43;;;;;;;10.25;5.32;;;7.50;99.90;;;;;;5072805;28;20043;-78
2022/04/16 03:42:10;;;;;;;14.93;6.30;;;7.50;99.90;;;;;;5076423;28;20389;-78
2022/04/16 03:44:37;;;;;;;11.60;5.00;;;7.50;99.90;;;;;;5098586;28;20374;-78
2022/04/16 03:47:03;;;;;;;17.83;5.38;;;7.60;99.90;;;;;;5117222;27;20040;-78
2022/04/16 03:49:29;;;;;;;10.07;5.63;;;7.60;99.90;;;;;;5080993;28;20122;-78
2022/04/16 03:51:54;;;;;;;11.00;6.28;;;7.70;99.90;;;;;;5080842;28;20278;-78
2022/04/16 04:00:00;;;;;;;10.98;5.25;;;7.80;99.90;;;;;;5116061;27;20076;-78
2022/04/16 04:02:28;;;;;;;9.75;4.95;;;7.80;99.90;;;;;;5073919;28;20498;-78
2022/04/16 04:04:54;;;;;;;11.18;5.10;;;7.80;99.90;;;;;;5081577;28;20105;-78
2022/04/16 04:07:20;;;;;;;11.05;5.60;;;7.80;99.90;;;;;;5098175;28;20089;-78
2022/04/16 04:09:46;;;;;;;11.80;5.43;;;7.80;99.90;;;;;;5079743;28;20778;-78
2022/04/16 04:12:13;;;;;;;11.75;5.10;;;7.90;99.90;;;;;;5077354;28;20032;-78
2022/04/16 04:14:43;;;;;;;12.32;5.30;;;7.80;99.90;;;;;;5078440;28;20421;-78
2022/04/16 04:17:09;;;;;;;9.70;4.88;;;7.90;99.90;;;;;;5079148;28;20060;-78
2022/04/16 04:19:40;;;;;;;8.45;4.43;;;7.80;99.90;;;;;;5079276;28;20032;-78
2022/04/16 04:22:09;;;;;;;9.18;4.72;;;7.90;99.90;;;;;;5077859;28;20468;-78
2022/04/16 04:24:39;;;;;;;12.63;4.93;;;7.80;99.90;;;;;;5077977;28;20050;-79
2022/04/16 04:27:06;;;;;;;11.93;5.40;;;7.80;99.90;;;;;;5111217;27;20063;-78
2022/04/16 04:29:32;;;;;;;7.53;4.88;;;7.80;99.90;;;;;;5073617;28;20127;-78
2022/04/16 04:31:58;;;;;;;8.95;4.70;;;7.80;99.90;;;;;;5078432;28;20119;-78
2022/04/16 04:34:24;;;;;;;9.80;5.07;;;7.80;99.90;;;;;;5079660;28;20389;-78
2022/04/16 04:36:50;;;;;;;9.90;4.88;;;7.80;99.90;;;;;;5069081;28;20409;-78
2022/04/16 04:39:16;;;;;;;7.82;4.53;;;7.80;99.90;;;;;;5087618;28;20036;-78
2022/04/16 04:41:43;;;;;;;8.27;4.43;;;7.80;99.90;;;;;;5114863;27;20426;-78
2022/04/16 04:44:10;;;;;;;9.15;4.88;;;7.80;99.90;;;;;;5081262;28;20120;-78
2022/04/16 04:46:36;;;;;;;7.75;3.92;;;7.70;99.90;;;;;;5094981;28;20489;-78
2022/04/16 04:49:02;;;;;;;7.88;3.70;;;7.70;99.90;;;;;;5111351;27;20100;-78
2022/04/16 04:51:27;;;;;;;10.23;4.75;;;7.80;99.90;;;;;;5078226;28;20090;-78
2022/04/16 04:53:53;;;;;;;8.30;4.20;;;7.80;99.90;;;;;;5078791;28;20028;-78
2022/04/16 04:56:18;;;;;;;8.00;4.57;;;7.70;99.90;;;;;;5080993;28;20127;-78
2022/04/16 04:58:44;;;;;;;9.55;4.78;;;7.70;99.90;;;;;;5080792;28;20047;-78
2022/04/16 05:01:10;;;;;;;8.95;4.45;;;7.80;99.90;;;;;;5077309;28;20037;-78
2022/04/16 05:03:35;;;;;;;9.00;4.43;;;7.80;99.90;;;;;;5078606;28;20028;-78
2022/04/16 05:06:01;;;;;;;7.57;3.50;;;7.80;99.90;;;;;;5083501;28;20036;-78
2022/04/16 05:08:27;;;;;;;8.32;4.20;;;7.80;99.90;;;;;;5056095;28;20047;-78
2022/04/16 05:10:52;;;;;;;7.53;4.07;;;7.70;99.90;;;;;;5077270;28;20039;-78
2022/04/16 05:13:18;;;;;;;6.90;3.67;;;7.80;99.90;;;;;;5075269;28;20055;-78
2022/04/16 05:15:43;;;;;;;7.95;3.28;;;7.80;99.90;;;;;;5115154;27;20139;-78
2022/04/16 05:18:09;;;;;;;8.18;4.07;;;7.80;99.90;;;;;;5079238;28;20486;-78
2022/04/16 05:20:35;;;;;;;8.13;3.72;;;7.80;99.90;;;;;;5060998;28;20405;-78
2022/04/16 05:23:00;;;;;;;8.88;3.67;;;7.80;99.90;;;;;;5082091;28;20594;-78
2022/04/16 05:25:26;;;;;;;7.82;3.38;;;7.90;99.90;;;;;;5077885;28;20035;-78
2022/04/16 05:27:51;;;;;;;9.32;4.10;;;7.80;99.90;;;;;;5081462;28;20574;-78
2022/04/16 05:30:25;;;;;;;10.52;4.25;;;7.90;99.90;;;;;;5051299;28;20036;-78
2022/04/16 05:32:51;;;;;;;9.07;4.40;;;7.90;99.90;;;;;;5080396;28;20050;-78
2022/04/16 05:35:16;;;;;;;5.72;2.42;;;8.00;99.90;;;;;;5078037;28;20057;-78
2022/04/16 05:37:42;;;;;;;7.07;3.30;;;7.90;99.90;;;;;;5109079;27;20048;-78
2022/04/16 05:40:09;;;;;;;7.25;3.67;;;8.00;99.90;;;;;;5082099;28;20081;-78
2022/04/16 05:42:40;;;;;;;8.25;3.50;;;8.00;99.90;;;;;;5110826;27;20052;-78
2022/04/16 05:45:06;;;;;;;6.45;4.03;;;8.00;99.90;;;;;;5062525;28;20500;-78
2022/04/16 05:47:32;;;;;;;9.43;3.92;;;8.00;99.90;;;;;;5063445;28;20036;-78
2022/04/16 05:49:57;;;;;;;8.25;3.65;;;8.10;99.90;;;;;;5074067;28;20040;-79
2022/04/16 05:52:23;;;;;;;7.72;3.92;;;8.00;99.90;;;;;;5070750;28;20051;-78
2022/04/16 05:54:50;;;;;;;6.45;3.05;;;8.10;99.90;;;;;;5110781;27;20055;-78
2022/04/16 05:57:17;;;;;;;7.32;3.38;;;8.10;99.90;;;;;;5079040;28;20066;-78
2022/04/16 05:59:43;;;;;;;6.60;3.35;;;8.10;99.90;;;;;;5076139;28;20052;-78
2022/04/16 06:02:10;;;;;;;7.57;3.13;;;8.10;99.90;;;;;;5063210;28;20500;-78
2022/04/16 06:04:36;;;;;;;5.63;3.10;;;8.10;99.90;;;;;;5074235;28;20111;-78
2022/04/16 06:07:01;;;;;;;6.35;2.17;;;8.10;99.90;;;;;;5111837;27;20173;-78
2022/04/16 06:09:28;;;;;;;6.68;3.53;;;8.20;99.90;;;;;;5092541;28;20047;-78
2022/04/16 06:12:06;;;;;;;7.18;3.38;;;8.10;99.90;;;;;;5062928;28;20044;-79
2022/04/16 06:14:32;;;;;;;6.72;3.83;;;8.20;99.90;;;;;;5109312;27;20051;-78
2022/04/16 06:16:57;;;;;;;6.78;3.17;;;8.20;99.90;;;;;;5070568;28;20048;-78
2022/04/16 06:19:23;;;;;;;5.97;2.90;;;8.20;99.90;;;;;;5109013;27;20305;-78
2022/04/16 06:21:50;;;;;;;5.60;3.15;;;8.10;99.90;;;;;;5074862;28;20238;-78
2022/04/16 06:24:16;;;;;;;6.20;2.90;;;8.10;99.90;;;;;;5076664;28;20036;-79
2022/04/16 06:26:42;;;;;;;7.35;3.42;;;8.20;99.90;;;;;;5057104;28;20047;-79
2022/04/16 06:29:08;;;;;;;6.47;3.53;;;8.20;99.90;;;;;;5075289;28;20105;-79
2022/04/16 06:31:33;;;;;;;5.18;2.90;;;8.20;99.90;;;;;;5071784;28;20048;-79
2022/04/16 06:33:59;;;;;;;6.18;2.92;;;8.30;99.90;;;;;;5071665;28;20060;-78
2022/04/16 06:36:26;;;;;;;7.85;3.72;;;8.30;99.90;;;;;;5113323;27;20159;-78
2022/04/16 06:38:51;;;;;;;5.18;2.65;;;8.30;99.90;;;;;;5079644;28;20041;-78
2022/04/16 06:41:17;;;;;;;8.50;3.30;;;8.30;99.90;;;;;;5106025;27;20085;-78
2022/04/16 06:43:42;;;;;;;7.78;3.10;;;8.30;99.90;;;;;;5053797;28;20085;-78
2022/04/16 06:46:08;;;;;;;8.25;3.47;;;8.30;99.90;;;;;;5080764;28;20036;-78
2022/04/16 06:48:33;;;;;;;6.13;3.13;;;8.40;99.90;;;;;;5073436;28;20071;-81
2022/04/16 06:50:59;;;;;;;8.57;3.80;;;8.30;99.90;;;;;;5075306;28;20350;-77
2022/04/16 06:53:28;;;;;;;9.23;3.15;;;8.30;99.90;;;;;;5078452;28;20047;-78
2022/04/16 06:55:54;;;;;;;7.85;3.65;;;8.40;99.90;;;;;;5054519;28;20062;-78
2022/04/16 06:58:19;;;;;;;5.18;2.55;;;8.40;99.90;;;;;;5072402;28;20144;-77
2022/04/16 07:00:45;;;;;;;4.72;2.50;;;8.50;99.90;;;;;;5107760;28;20405;-77
2022/04/16 07:03:10;;;;;;;5.93;2.75;;;8.50;99.90;;;;;;5076904;28;20043;-78
2022/04/16 07:05:36;;;;;;;7.10;3.28;;;8.50;99.90;;;;;;5075043;28;20448;-79
2022/04/16 07:08:02;;;;;;;9.25;3.15;;;8.50;99.90;;;;;;5069555;28;20405;-78
2022/04/16 07:10:28;;;;;;;6.60;2.58;;;8.50;99.90;;;;;;5073139;28;20036;-78
2022/04/16 07:12:53;;;;;;;5.43;2.80;;;8.50;99.90;;;;;;5054742;28;20044;-78
2022/04/16 07:15:19;;;;;;;5.38;2.70;;;8.60;99.90;;;;;;5054422;28;20052;-79
2022/04/16 07:17:47;;;;;;;6.85;2.83;;;8.60;99.90;;;;;;5098182;28;20051;-79
2022/04/16 07:20:13;;;;;;;5.05;2.65;;;8.60;99.90;;;;;;5089200;28;20124;-78
2022/04/16 07:22:39;;;;;;;6.53;3.05;;;8.70;99.90;;;;;;5070585;28;20129;-78
2022/04/16 07:25:05;;;;;;;6.35;2.78;;;8.70;99.90;;;;;;5070159;28;20343;-78
2022/04/16 07:27:32;;;;;;;4.68;2.33;;;8.70;99.90;;;;;;5104001;28;20490;-78
2022/04/16 07:29:58;;;;;;;6.50;3.00;;;8.70;99.90;;;;;;5068951;28;20056;-78
2022/04/16 07:32:27;;;;;;;5.40;2.30;;;8.80;99.90;;;;;;5069828;28;20047;-78
2022/04/16 07:34:53;;;;;;;10.70;3.10;;;8.80;99.90;;;;;;5053387;28;20203;-79
2022/04/16 07:37:19;;;;;;;6.05;3.03;;;8.80;99.90;;;;;;5086927;28;20153;-78
2022/04/16 07:39:44;;;;;;;5.63;2.30;;;8.80;99.90;;;;;;5072402;28;20378;-78
2022/04/16 07:42:10;;;;;;;5.55;2.47;;;8.90;99.90;;;;;;5069927;28;20467;-78
2022/04/16 07:44:35;;;;;;;3.72;1.67;;;8.90;99.90;;;;;;5052573;28;20063;-78
2022/04/16 07:47:01;;;;;;;5.88;1.55;;;8.90;99.90;;;;;;5070643;28;20044;-80
2022/04/16 07:49:27;;;;;;;3.45;1.95;;;8.80;99.90;;;;;;5075561;28;20036;-78
2022/04/16 07:51:52;;;;;;;4.40;1.50;;;8.90;99.90;;;;;;5074436;28;20032;-79
2022/04/16 07:54:18;;;;;;;2.78;1.25;;;8.90;99.90;;;;;;5057699;28;20128;-79
2022/04/16 07:56:45;;;;;;;2.85;1.48;;;8.90;99.90;;;;;;5070767;28;21512;-78
2022/04/16 07:59:11;;;;;;;2.20;1.10;;;8.90;99.90;;;;;;5088421;28;20028;-77
2022/04/16 08:01:37;;;;;;;1.60;1.08;;;8.90;99.90;;;;;;5070248;28;20055;-77
2022/04/16 08:04:03;;;;;;;2.97;0.95;;;8.90;99.90;;;;;;5093398;28;20123;-78
2022/04/16 08:06:29;;;;;;;2.42;1.10;;;8.90;99.90;;;;;;5077810;28;20040;-78
2022/04/16 08:09:00;;;;;;;2.13;0.80;;;8.90;99.90;;;;;;5076475;28;20094;-78
2022/04/16 08:11:30;;;;;;;5.70;1.30;;;8.90;99.90;;;;;;5073882;28;20125;-77
2022/04/16 08:13:56;;;;;;;2.60;1.10;;;8.90;99.90;;;;;;5100677;27;20494;-77
2022/04/16 08:16:21;;;;;;;2.08;0.90;;;8.90;99.90;;;;;;5076129;28;20044;-78
2022/04/16 08:18:47;;;;;;;2.58;1.20;;;9.00;99.90;;;;;;5076438;28;20047;-78
2022/04/16 08:21:12;;;;;;;2.55;1.08;;;9.00;99.90;;;;;;5078693;28;20039;-78
2022/04/16 08:23:44;;;;;;;2.70;1.10;;;9.00;99.90;;;;;;5106246;27;20043;-78
2022/04/16 08:26:11;;;;;;;3.45;1.33;;;9.00;99.90;;;;;;5109345;27;20115;-78
2022/04/16 08:28:36;;;;;;;2.30;1.17;;;9.10;99.90;;;;;;5090744;28;20070;-78
2022/04/16 08:31:02;;;;;;;2.63;1.08;;;9.10;99.90;;;;;;5075088;28;20067;-79
2022/04/16 08:33:28;;;;;;;2.95;0.80;;;9.10;99.90;;;;;;5076869;28;20079;-79
2022/04/16 08:35:54;;;;;;;5.22;1.13;;;9.20;99.90;;;;;;5054148;28;20036;-80
2022/04/16 08:38:19;;;;;;;3.35;1.10;;;9.20;99.90;;;;;;5070620;28;20123;-79
2022/04/16 08:40:46;;;;;;;2.00;0.93;;;9.20;99.90;;;;;;5069304;28;20043;-80
2022/04/16 08:43:13;;;;;;;1.40;0.60;;;9.30;99.90;;;;;;5073738;28;21685;-77
2022/04/16 08:45:39;;;;;;;1.55;0.90;;;9.30;99.90;;;;;;5057614;28;20043;-78
2022/04/16 08:48:05;;;;;;;0.85;0.47;;;9.30;99.90;;;;;;5074470;28;20040;-78
2022/04/16 08:50:32;;;;;;;1.15;0.70;;;9.40;99.90;;;;;;5072855;28;20040;-78
2022/04/16 08:52:58;;;;;;;1.60;0.85;;;9.40;99.90;;;;;;5087581;28;20047;-78
2022/04/16 08:55:23;;;;;;;2.35;1.38;;;9.50;99.90;;;;;;5102913;27;20043;-78
2022/04/16 08:57:51;;;;;;;2.25;1.08;;;9.50;99.90;;;;;;5072360;28;20382;-78
2022/04/16 09:00:17;;;;;;;1.48;0.65;;;9.60;99.90;;;;;;5067025;28;20036;-78
2022/04/16 09:03:03;;;;;;;3.30;0.80;;;9.60;99.90;;;;;;5105391;27;20036;-78
2022/04/16 09:05:29;;;;;;;2.00;1.00;;;9.60;98.40;;;;;;5069513;28;20132;-78
2022/04/16 09:07:56;;;;;;;1.67;0.80;;;9.60;99.90;;;;;;5078293;28;20126;-78
2022/04/16 09:10:25;;;;;;;2.55;1.20;;;9.70;99.90;;;;;;5072589;28;20095;-78
2022/04/16 09:12:53;;;;;;;3.00;0.70;;;9.70;99.80;;;;;;5060907;28;20421;-78
2022/04/16 09:15:19;;;;;;;1.80;0.75;;;9.80;99.20;;;;;;5073665;28;20050;-78
2022/04/16 09:17:56;;;;;;;1.42;0.60;;;9.80;99.30;;;;;;5088297;28;20685;-80
2022/04/16 09:20:21;;;;;;;3.28;0.60;;;9.80;96.60;;;;;;5081636;28;20032;-78
2022/04/16 09:22:49;;;;;;;1.10;0.40;;;9.90;98.00;;;;;;5075193;28;20050;-78
2022/04/16 09:25:19;;;;;;;2.05;1.33;;;9.90;96.20;;;;;;5069326;28;20032;-78
2022/04/16 09:27:50;;;;;;;1.17;0.85;;;9.90;96.60;;;;;;5053397;28;20481;-78
2022/04/16 09:30:23;;;;;;;1.65;0.65;;;9.90;97.10;;;;;;5056640;28;20149;-78
2022/04/16 09:32:48;;;;;;;1.50;0.52;;;10.00;96.50;;;;;;5093088;28;20040;-77
2022/04/16 09:35:28;;;;;;;1.63;0.55;;;10.00;96.70;;;;;;5068581;28;20040;-78
2022/04/16 09:37:58;;;;;;;0.75;0.40;;;10.00;94.50;;;;;;5072133;28;20113;-78
2022/04/16 09:40:26;;;;;;;1.73;0.45;;;10.00;95.50;;;;;;5065701;28;20568;-78
2022/04/16 09:42:56;;;;;;;0.77;0.32;;;10.10;95.70;;;;;;5102397;27;20031;-78
2022/04/16 09:45:21;;;;;;;0.93;0.30;;;10.10;93.60;;;;;;5065419;28;20036;-78
2022/04/16 09:47:49;;;;;;;0.57;0.32;;;10.10;93.90;;;;;;5066077;28;20047;-78
2022/04/16 09:50:17;;;;;;;0.68;0.30;;;10.20;94.30;;;;;;5066210;28;20074;-78
2022/04/16 09:52:43;;;;;;;0.80;0.40;;;10.20;94.10;;;;;;5100541;27;20178;-77
2022/04/16 09:55:10;;;;;;;0.47;0.40;;;10.30;92.40;;;;;;5084467;28;20048;-78
2022/04/16 09:57:38;;;;;;;1.05;0.45;;;10.30;92.20;;;;;;5070731;28;20569;-78
2022/04/16 10:00:05;;;;;;;0.88;0.43;;;10.30;90.50;;;;;;5085777;27;20064;-78
2022/04/16 10:02:31;;;;;;;0.50;0.35;;;10.30;92.00;;;;;;5076967;28;20515;-78
2022/04/16 10:04:59;;;;;;;0.82;0.40;;;10.30;93.20;;;;;;5063533;28;20227;-78
2022/04/16 10:07:25;;;;;;;1.90;0.40;;;10.30;92.00;;;;;;5081800;28;20044;-78
2022/04/16 10:09:53;;;;;;;0.28;0.10;;;10.40;91.90;;;;;;5065707;28;20661;-78
2022/04/16 10:15:11;;;;;;;0.93;0.38;;;10.40;88.90;;;;;;5066102;28;20481;-78
2022/04/16 10:17:45;;;;;;;0.40;0.20;;;10.40;84.60;;;;;;5099650;27;20309;-78
2022/04/16 10:20:16;;;;;;;0.52;0.30;;;10.50;90.20;;;;;;5099528;27;20041;-78
2022/04/16 10:23:12;;;;;;;0.30;0.15;;;10.50;90.50;;;;;;5051536;28;20048;-78
2022/04/16 10:25:42;;;;;;;0.73;0.30;;;10.60;73.00;;;;;;5058096;28;20039;-78
2022/04/16 10:28:23;;;;;;;0.30;0.20;;;10.60;83.00;;;;;;5103410;27;20431;-78
2022/04/16 10:30:53;;;;;;;0.28;0.20;;;10.60;80.90;;;;;;5052642;28;20175;-78
2022/04/16 10:33:28;;;;;;;0.47;0.30;;;10.60;86.10;;;;;;5103537;27;20101;-78
2022/04/16 10:36:02;;;;;;;3.05;0.60;;;10.60;78.50;;;;;;5054693;28;20816;-78
2022/04/16 10:38:35;;;;;;;0.40;0.30;;;10.60;82.40;;;;;;5104884;27;20410;-78
2022/04/16 10:41:02;;;;;;;0.77;0.50;;;10.70;83.70;;;;;;5058040;28;20398;-78
2022/04/16 10:43:33;;;;;;;0.32;0.30;;;10.70;88.30;;;;;;5068622;28;20040;-78
2022/04/16 10:46:05;;;;;;;5.07;0.60;;;10.70;83.90;;;;;;5065428;28;20036;-78
2022/04/16 10:48:32;;;;;;;0.28;0.28;;;10.80;84.00;;;;;;5058112;28;20139;-82
2022/04/16 10:50:59;;;;;;;2.72;0.30;;;10.80;85.60;;;;;;5052102;28;20084;-78
2022/04/16 10:53:33;;;;;;;0.70;0.30;;;10.90;83.90;;;;;;5083565;28;20048;-78
2022/04/16 10:56:13;;;;;;;0.20;0.15;;;10.90;78.60;;;;;;5064167;28;20039;-78
2022/04/16 10:58:43;;;;;;;1.88;0.43;;;11.00;76.80;;;;;;5095493;27;20123;-76
2022/04/16 11:01:13;;;;;;;0.82;0.40;;;11.00;80.40;;;;;;5081787;28;20060;-78
2022/04/16 11:03:47;;;;;;;2.28;0.30;;;11.00;79.20;;;;;;5068748;28;20032;-79
2022/04/16 11:06:14;;;;;;;0.25;0.20;;;11.00;78.40;;;;;;5067187;28;20032;-78
2022/04/16 11:08:41;;;;;;;0.50;0.25;;;11.00;81.60;;;;;;5068698;28;20383;-79
2022/04/16 11:11:08;;;;;;;1.17;0.43;;;11.00;81.30;;;;;;5083811;28;20093;-78
2022/04/16 11:13:38;;;;;;;0.80;0.40;;;11.10;81.80;;;;;;5068535;28;20048;-79
2022/04/16 11:16:05;;;;;;;0.95;0.40;;;11.10;77.60;;;;;;5069394;28;20056;-79
2022/04/16 11:18:44;;;;;;;0.50;0.30;;;11.10;78.90;;;;;;5099817;28;20115;-80
2022/04/16 11:21:21;;;;;;;0.80;0.38;;;11.10;70.40;;;;;;5067613;28;20123;-80
2022/04/16 11:23:52;;;;;;;0.70;0.40;;;11.10;78.10;;;;;;5058320;28;20033;-81
2022/04/16 11:34:34;;;;;;;0.22;0.20;;;11.30;75.90;;;;;;5071634;28;20048;-79
2022/04/16 11:37:00;;;;;;;0.60;0.20;;;11.20;75.80;;;;;;5087071;28;20040;-79
2022/04/16 11:39:30;;;;;;;0.40;0.22;;;11.20;74.90;;;;;;5054149;28;20055;-78
2022/04/16 11:41:59;;;;;;;0.43;0.30;;;11.30;73.90;;;;;;5069595;28;20115;-78
2022/04/16 11:44:42;;;;;;;0.93;0.40;;;11.30;71.10;;;;;;5054153;28;21805;-78
2022/04/16 11:47:18;;;;;;;0.35;0.25;;;11.30;72.70;;;;;;5058345;28;20040;-78
2022/04/16 11:49:56;;;;;;;0.35;0.30;;;11.30;75.00;;;;;;5068849;28;20098;-79
2022/04/16 11:52:26;;;;;;;0.85;0.30;;;11.30;73.10;;;;;;5099010;28;20426;-78
2022/04/16 11:55:02;;;;;;;1.15;0.50;;;11.40;70.50;;;;;;5097161;28;20048;-79
2022/04/16 11:57:28;;;;;;;0.82;0.40;;;11.40;68.40;;;;;;5070685;28;20413;-79
2022/04/16 12:00:03;;;;;;;1.20;0.50;;;11.40;72.40;;;;;;5098523;28;20039;-78
2022/04/16 12:02:31;;;;;;;0.60;0.30;;;11.40;69.20;;;;;;5069021;28;20540;-79
2022/04/16 12:05:09;;;;;;;0.43;0.20;;;11.50;70.90;;;;;;5076387;28;20081;-79
2022/04/16 12:07:35;;;;;;;0.45;0.10;;;11.50;69.30;;;;;;5073529;28;21216;-78
2022/04/16 12:10:02;;;;;;;1.08;0.40;;;11.60;74.10;;;;;;5073191;28;20123;-79
2022/04/16 12:12:28;;;;;;;0.55;0.35;;;11.60;75.50;;;;;;5088746;28;20068;-78
2022/04/16 12:14:54;;;;;;;0.90;0.40;;;11.70;73.30;;;;;;5073657;28;20600;-77
2022/04/16 12:17:29;;;;;;;1.02;0.40;;;11.70;73.10;;;;;;5108481;27;20044;-78
2022/04/16 12:20:02;;;;;;;0.88;0.40;;;11.70;71.30;;;;;;5069707;28;20031;-78
2022/04/16 12:22:28;;;;;;;0.20;0.20;;;11.70;71.10;;;;;;5087995;28;20085;-79
2022/04/16 12:24:54;;;;;;;0.45;0.20;;;11.80;74.10;;;;;;5059305;28;20032;-78
2022/04/16 12:27:26;;;;;;;0.63;0.30;;;11.80;73.40;;;;;;5072310;28;20529;-78
2022/04/16 12:29:55;;;;;;;0.22;0.17;;;11.80;68.20;;;;;;5103693;27;20125;-78
2022/04/16 12:32:27;;;;;;;0.30;0.22;;;11.80;69.80;;;;;;5108374;27;20072;-78
2022/04/16 12:34:53;;;;;;;0.40;0.28;;;11.80;69.50;;;;;;5076074;28;20041;-82
2022/04/16 12:37:20;;;;;;;0.20;0.15;;;11.80;70.10;;;;;;5101295;27;20055;-78
2022/04/16 12:39:46;;;;;;;6.03;0.50;;;11.90;69.90;;;;;;5075087;28;20149;-79
2022/04/16 12:42:12;;;;;;;0.30;0.10;;;11.90;69.40;;;;;;5075872;28;20046;-79
2022/04/16 12:44:37;;;;;;;0.50;0.30;;;11.90;69.30;;;;;;5072172;28;20044;-80
2022/04/16 12:47:03;;;;;;;0.63;0.40;;;12.00;68.40;;;;;;5085772;28;20151;-79
2022/04/16 12:49:29;;;;;;;0.65;0.20;;;12.00;69.70;;;;;;5075173;28;20722;-79
2022/04/16 12:51:54;;;;;;;0.63;0.30;;;12.00;68.20;;;;;;5070734;28;20518;-79
2022/04/16 12:54:20;;;;;;;0.15;0.10;;;12.00;68.60;;;;;;5090384;28;20063;-79
2022/04/16 12:56:47;;;;;;;0.95;0.40;;;12.10;67.90;;;;;;5055504;28;20058;-78
2022/04/16 12:59:15;;;;;;;0.20;0.20;;;12.10;68.60;;;;;;5098382;27;20043;-78
2022/04/16 13:01:41;;;;;;;0.70;0.30;;;12.10;67.50;;;;;;5102163;27;20155;-79
2022/04/16 13:04:07;;;;;;;0.47;0.30;;;12.10;68.20;;;;;;5068645;28;20662;-76
2022/04/16 13:06:32;;;;;;;0.35;0.25;;;12.10;66.50;;;;;;5069472;28;20536;-79
2022/04/16 13:09:02;;;;;;;0.40;0.25;;;12.10;67.70;;;;;;5064269;28;20051;-78
2022/04/16 13:11:28;;;;;;;0.47;0.30;;;12.10;68.00;;;;;;5070654;28;20032;-79
2022/04/16 13:13:54;;;;;;;0.28;0.17;;;12.20;67.10;;;;;;5084733;28;20561;-80
2022/04/16 13:16:20;;;;;;;0.60;0.28;;;12.20;65.90;;;;;;5069455;28;21152;-79